sensor_id;sensor_type;location;lat;lon;timestamp;temperature;humidity
34837;DHT22;21053;50.848;4.652;2023-05-21T00:00:25;15.60;97.60
34837;DHT22;21053;50.848;4.652;2023-05-21T00:02:54;15.40;97.80
34837;DHT22;21053;50.848;4.652;2023-05-21T00:05:23;15.30;98.10
34837;DHT22;21053;50.848;4.652;2023-05-21T00:07:52;15.00;98.50
34837;DHT22;21053;50.848;4.652;2023-05-21T00:10:22;15.00;98.50
34837;DHT22;21053;50.848;4.652;2023-05-21T00:12:53;15.10;98.20
34837;DHT22;21053;50.848;4.652;2023-05-21T00:15:19;15.20;98.40
34837;DHT22;21053;50.848;4.652;2023-05-21T00:17:47;15.10;98.50
34837;DHT22;21053;50.848;4.652;2023-05-21T00:20:13;15.00;98.60
34837;DHT22;21053;50.848;4.652;2023-05-21T00:22:42;14.90;98.90
34837;DHT22;21053;50.848;4.652;2023-05-21T00:25:10;14.70;99.50
34837;DHT22;21053;50.848;4.652;2023-05-21T00:27:37;14.80;99.10
34837;DHT22;21053;50.848;4.652;2023-05-21T00:30:06;14.80;98.80
34837;DHT22;21053;50.848;4.652;2023-05-21T00:32:33;15.00;98.40
34837;DHT22;21053;50.848;4.652;2023-05-21T00:34:59;14.80;98.60
34837;DHT22;21053;50.848;4.652;2023-05-21T00:37:24;14.60;99.50
34837;DHT22;21053;50.848;4.652;2023-05-21T00:39:53;14.50;99.60
34837;DHT22;21053;50.848;4.652;2023-05-21T00:42:22;14.50;99.90
34837;DHT22;21053;50.848;4.652;2023-05-21T00:44:52;14.50;99.70
34837;DHT22;21053;50.848;4.652;2023-05-21T00:47:20;14.40;99.90
34837;DHT22;21053;50.848;4.652;2023-05-21T00:49:50;14.60;99.80
34837;DHT22;21053;50.848;4.652;2023-05-21T00:52:18;14.60;99.50
34837;DHT22;21053;50.848;4.652;2023-05-21T00:54:52;14.50;99.60
34837;DHT22;21053;50.848;4.652;2023-05-21T00:57:19;14.50;99.70
34837;DHT22;21053;50.848;4.652;2023-05-21T00:59:50;14.60;99.40
34837;DHT22;21053;50.848;4.652;2023-05-21T01:02:18;14.60;99.30
34837;DHT22;21053;50.848;4.652;2023-05-21T01:04:47;14.50;99.60
34837;DHT22;21053;50.848;4.652;2023-05-21T01:07:15;14.40;99.60
34837;DHT22;21053;50.848;4.652;2023-05-21T01:09:46;14.30;99.50
34837;DHT22;21053;50.848;4.652;2023-05-21T01:12:13;14.20;99.90
34837;DHT22;21053;50.848;4.652;2023-05-21T01:14:42;14.20;99.90
34837;DHT22;21053;50.848;4.652;2023-05-21T01:17:15;14.30;99.90
34837;DHT22;21053;50.848;4.652;2023-05-21T01:19:43;14.20;99.90
34837;DHT22;21053;50.848;4.652;2023-05-21T01:22:11;14.20;99.90
34837;DHT22;21053;50.848;4.652;2023-05-21T01:24:40;14.20;99.90
34837;DHT22;21053;50.848;4.652;2023-05-21T01:27:12;14.30;99.90
34837;DHT22;21053;50.848;4.652;2023-05-21T01:29:38;14.00;99.90
34837;DHT22;21053;50.848;4.652;2023-05-21T01:35:07;13.80;99.90
34837;DHT22;21053;50.848;4.652;2023-05-21T01:40:36;13.80;99.90
34837;DHT22;21053;50.848;4.652;2023-05-21T01:43:08;13.90;99.90
34837;DHT22;21053;50.848;4.652;2023-05-21T01:45:39;13.90;99.90
34837;DHT22;21053;50.848;4.652;2023-05-21T01:48:08;13.80;99.90
34837;DHT22;21053;50.848;4.652;2023-05-21T01:50:39;13.80;99.90
34837;DHT22;21053;50.848;4.652;2023-05-21T01:53:07;13.90;99.90
34837;DHT22;21053;50.848;4.652;2023-05-21T01:55:32;13.90;99.90
34837;DHT22;21053;50.848;4.652;2023-05-21T01:57:59;13.90;99.90
34837;DHT22;21053;50.848;4.652;2023-05-21T02:00:26;13.90;99.90
34837;DHT22;21053;50.848;4.652;2023-05-21T02:02:57;13.90;99.90
34837;DHT22;21053;50.848;4.652;2023-05-21T02:05:26;14.00;99.90
34837;DHT22;21053;50.848;4.652;2023-05-21T02:07:54;14.00;99.90
34837;DHT22;21053;50.848;4.652;2023-05-21T02:10:23;13.90;99.90
34837;DHT22;21053;50.848;4.652;2023-05-21T02:12:50;13.90;99.90
34837;DHT22;21053;50.848;4.652;2023-05-21T02:15:16;13.80;99.90
34837;DHT22;21053;50.848;4.652;2023-05-21T02:17:45;13.90;99.90
34837;DHT22;21053;50.848;4.652;2023-05-21T02:20:11;13.90;99.90
34837;DHT22;21053;50.848;4.652;2023-05-21T02:22:47;13.90;99.90
34837;DHT22;21053;50.848;4.652;2023-05-21T02:25:17;13.90;99.90
34837;DHT22;21053;50.848;4.652;2023-05-21T02:27:46;13.80;99.90
34837;DHT22;21053;50.848;4.652;2023-05-21T02:30:14;13.90;99.90
34837;DHT22;21053;50.848;4.652;2023-05-21T02:32:43;13.90;99.90
34837;DHT22;21053;50.848;4.652;2023-05-21T02:35:11;13.90;99.90
34837;DHT22;21053;50.848;4.652;2023-05-21T02:37:38;13.90;99.90
34837;DHT22;21053;50.848;4.652;2023-05-21T02:40:08;13.80;99.90
34837;DHT22;21053;50.848;4.652;2023-05-21T02:42:36;13.80;99.90
34837;DHT22;21053;50.848;4.652;2023-05-21T02:45:10;13.80;99.90
34837;DHT22;21053;50.848;4.652;2023-05-21T02:47:39;13.90;99.90
34837;DHT22;21053;50.848;4.652;2023-05-21T02:50:06;13.90;99.90
34837;DHT22;21053;50.848;4.652;2023-05-21T02:52:32;13.90;99.90
34837;DHT22;21053;50.848;4.652;2023-05-21T02:55:01;13.90;99.90
34837;DHT22;21053;50.848;4.652;2023-05-21T02:57:28;14.00;99.90
34837;DHT22;21053;50.848;4.652;2023-05-21T02:59:57;13.90;99.90
34837;DHT22;21053;50.848;4.652;2023-05-21T03:02:23;13.90;99.90
34837;DHT22;21053;50.848;4.652;2023-05-21T03:04:51;13.90;99.90
34837;DHT22;21053;50.848;4.652;2023-05-21T03:07:20;13.90;99.90
34837;DHT22;21053;50.848;4.652;2023-05-21T03:09:47;13.90;99.90
34837;DHT22;21053;50.848;4.652;2023-05-21T03:12:15;14.10;99.90
34837;DHT22;21053;50.848;4.652;2023-05-21T03:14:43;14.00;99.90
34837;DHT22;21053;50.848;4.652;2023-05-21T03:17:13;13.90;99.90
34837;DHT22;21053;50.848;4.652;2023-05-21T03:19:43;13.80;99.90
34837;DHT22;21053;50.848;4.652;2023-05-21T03:22:11;13.80;99.90
34837;DHT22;21053;50.848;4.652;2023-05-21T03:24:40;13.80;99.90
34837;DHT22;21053;50.848;4.652;2023-05-21T03:27:07;13.80;99.90
34837;DHT22;21053;50.848;4.652;2023-05-21T03:29:33;13.90;99.90
34837;DHT22;21053;50.848;4.652;2023-05-21T03:31:59;13.90;99.90
34837;DHT22;21053;50.848;4.652;2023-05-21T03:34:28;13.80;99.90
34837;DHT22;21053;50.848;4.652;2023-05-21T03:36:54;13.80;99.90
34837;DHT22;21053;50.848;4.652;2023-05-21T03:39:23;13.90;99.90
34837;DHT22;21053;50.848;4.652;2023-05-21T03:41:52;13.90;99.90
34837;DHT22;21053;50.848;4.652;2023-05-21T03:44:19;13.90;99.90
34837;DHT22;21053;50.848;4.652;2023-05-21T03:46:46;13.90;99.90
34837;DHT22;21053;50.848;4.652;2023-05-21T03:49:19;13.90;99.90
34837;DHT22;21053;50.848;4.652;2023-05-21T03:51:45;13.90;99.90
34837;DHT22;21053;50.848;4.652;2023-05-21T03:54:18;13.90;99.90
34837;DHT22;21053;50.848;4.652;2023-05-21T03:56:46;13.90;99.90
34837;DHT22;21053;50.848;4.652;2023-05-21T03:59:14;13.90;99.90
34837;DHT22;21053;50.848;4.652;2023-05-21T04:01:43;13.90;99.90
34837;DHT22;21053;50.848;4.652;2023-05-21T04:04:12;13.80;99.90
34837;DHT22;21053;50.848;4.652;2023-05-21T04:06:38;13.80;99.90
34837;DHT22;21053;50.848;4.652;2023-05-21T04:09:07;13.80;99.90
34837;DHT22;21053;50.848;4.652;2023-05-21T04:11:36;13.60;99.90
34837;DHT22;21053;50.848;4.652;2023-05-21T04:14:05;13.60;99.90
34837;DHT22;21053;50.848;4.652;2023-05-21T04:16:31;13.60;99.90
34837;DHT22;21053;50.848;4.652;2023-05-21T04:19:02;13.70;99.90
34837;DHT22;21053;50.848;4.652;2023-05-21T04:21:27;13.80;99.90
34837;DHT22;21053;50.848;4.652;2023-05-21T04:23:53;13.80;99.90
34837;DHT22;21053;50.848;4.652;2023-05-21T04:26:24;13.80;99.90
34837;DHT22;21053;50.848;4.652;2023-05-21T04:28:56;13.80;99.90
34837;DHT22;21053;50.848;4.652;2023-05-21T04:31:26;13.90;99.90
34837;DHT22;21053;50.848;4.652;2023-05-21T04:33:55;13.90;99.90
34837;DHT22;21053;50.848;4.652;2023-05-21T04:36:27;14.00;99.90
34837;DHT22;21053;50.848;4.652;2023-05-21T04:38:55;13.90;99.90
34837;DHT22;21053;50.848;4.652;2023-05-21T04:41:21;13.90;99.90
34837;DHT22;21053;50.848;4.652;2023-05-21T04:43:50;13.90;99.90
34837;DHT22;21053;50.848;4.652;2023-05-21T04:46:20;13.90;99.90
34837;DHT22;21053;50.848;4.652;2023-05-21T04:48:52;13.90;99.90
34837;DHT22;21053;50.848;4.652;2023-05-21T04:51:21;14.00;99.90
34837;DHT22;21053;50.848;4.652;2023-05-21T04:53:50;14.00;99.90
34837;DHT22;21053;50.848;4.652;2023-05-21T04:56:16;14.10;99.90
34837;DHT22;21053;50.848;4.652;2023-05-21T04:58:43;14.10;99.90
34837;DHT22;21053;50.848;4.652;2023-05-21T05:01:13;14.20;99.90
34837;DHT22;21053;50.848;4.652;2023-05-21T05:03:41;14.00;99.90
34837;DHT22;21053;50.848;4.652;2023-05-21T05:06:08;14.10;99.90
34837;DHT22;21053;50.848;4.652;2023-05-21T05:08:34;14.10;99.90
34837;DHT22;21053;50.848;4.652;2023-05-21T05:11:05;14.20;99.90
34837;DHT22;21053;50.848;4.652;2023-05-21T05:13:33;14.20;99.90
34837;DHT22;21053;50.848;4.652;2023-05-21T05:15:59;14.20;99.90
34837;DHT22;21053;50.848;4.652;2023-05-21T05:18:26;14.20;99.90
34837;DHT22;21053;50.848;4.652;2023-05-21T05:20:51;14.20;99.90
34837;DHT22;21053;50.848;4.652;2023-05-21T05:23:20;14.10;99.90
34837;DHT22;21053;50.848;4.652;2023-05-21T05:25:46;14.20;99.90
34837;DHT22;21053;50.848;4.652;2023-05-21T05:28:13;14.30;99.90
34837;DHT22;21053;50.848;4.652;2023-05-21T05:30:40;14.30;99.90
34837;DHT22;21053;50.848;4.652;2023-05-21T05:33:07;14.40;99.90
34837;DHT22;21053;50.848;4.652;2023-05-21T05:35:33;14.50;99.90
34837;DHT22;21053;50.848;4.652;2023-05-21T05:38:00;14.50;99.90
34837;DHT22;21053;50.848;4.652;2023-05-21T05:40:26;14.50;99.90
34837;DHT22;21053;50.848;4.652;2023-05-21T05:42:55;14.60;99.90
34837;DHT22;21053;50.848;4.652;2023-05-21T05:45:22;14.70;99.90
34837;DHT22;21053;50.848;4.652;2023-05-21T05:47:47;14.80;99.90
34837;DHT22;21053;50.848;4.652;2023-05-21T05:50:13;14.90;99.90
34837;DHT22;21053;50.848;4.652;2023-05-21T05:52:42;14.80;99.90
34837;DHT22;21053;50.848;4.652;2023-05-21T05:55:09;14.90;99.90
34837;DHT22;21053;50.848;4.652;2023-05-21T05:57:37;14.80;99.90
34837;DHT22;21053;50.848;4.652;2023-05-21T06:00:04;14.90;99.90
34837;DHT22;21053;50.848;4.652;2023-05-21T06:02:33;15.00;99.90
34837;DHT22;21053;50.848;4.652;2023-05-21T06:04:59;15.00;99.90
34837;DHT22;21053;50.848;4.652;2023-05-21T06:07:25;15.10;99.90
34837;DHT22;21053;50.848;4.652;2023-05-21T06:09:52;15.20;99.90
34837;DHT22;21053;50.848;4.652;2023-05-21T06:12:21;15.30;99.90
34837;DHT22;21053;50.848;4.652;2023-05-21T06:14:48;15.20;99.90
34837;DHT22;21053;50.848;4.652;2023-05-21T06:17:16;15.30;99.90
34837;DHT22;21053;50.848;4.652;2023-05-21T06:19:44;15.50;99.90
34837;DHT22;21053;50.848;4.652;2023-05-21T06:22:13;15.50;99.90
34837;DHT22;21053;50.848;4.652;2023-05-21T06:24:40;15.60;99.90
34837;DHT22;21053;50.848;4.652;2023-05-21T06:27:08;15.60;99.90
34837;DHT22;21053;50.848;4.652;2023-05-21T06:29:35;15.70;99.90
34837;DHT22;21053;50.848;4.652;2023-05-21T06:32:02;15.70;99.90
34837;DHT22;21053;50.848;4.652;2023-05-21T06:34:29;15.70;99.90
34837;DHT22;21053;50.848;4.652;2023-05-21T06:36:54;15.60;99.90
34837;DHT22;21053;50.848;4.652;2023-05-21T06:39:20;15.50;99.90
34837;DHT22;21053;50.848;4.652;2023-05-21T06:41:46;15.60;99.90
34837;DHT22;21053;50.848;4.652;2023-05-21T06:44:13;15.60;99.90
34837;DHT22;21053;50.848;4.652;2023-05-21T06:46:40;15.60;99.90
34837;DHT22;21053;50.848;4.652;2023-05-21T06:49:06;15.60;99.90
34837;DHT22;21053;50.848;4.652;2023-05-21T06:51:32;15.70;99.90
34837;DHT22;21053;50.848;4.652;2023-05-21T06:54:01;15.90;99.90
34837;DHT22;21053;50.848;4.652;2023-05-21T06:56:29;16.00;99.90
34837;DHT22;21053;50.848;4.652;2023-05-21T06:58:55;16.00;99.90
34837;DHT22;21053;50.848;4.652;2023-05-21T07:01:23;16.00;99.90
34837;DHT22;21053;50.848;4.652;2023-05-21T07:03:51;16.10;99.90
34837;DHT22;21053;50.848;4.652;2023-05-21T07:06:19;16.10;99.90
34837;DHT22;21053;50.848;4.652;2023-05-21T07:08:45;16.20;99.90
34837;DHT22;21053;50.848;4.652;2023-05-21T07:11:13;16.30;99.90
34837;DHT22;21053;50.848;4.652;2023-05-21T07:13:39;16.40;99.90
34837;DHT22;21053;50.848;4.652;2023-05-21T07:16:05;16.50;99.90
34837;DHT22;21053;50.848;4.652;2023-05-21T07:18:34;16.70;99.90
34837;DHT22;21053;50.848;4.652;2023-05-21T07:20:59;17.00;99.90
34837;DHT22;21053;50.848;4.652;2023-05-21T07:23:25;17.20;99.90
34837;DHT22;21053;50.848;4.652;2023-05-21T07:25:52;17.40;99.90
34837;DHT22;21053;50.848;4.652;2023-05-21T07:28:18;17.60;99.90
34837;DHT22;21053;50.848;4.652;2023-05-21T07:30:45;17.80;99.90
34837;DHT22;21053;50.848;4.652;2023-05-21T07:33:14;17.90;99.10
34837;DHT22;21053;50.848;4.652;2023-05-21T07:35:43;18.10;98.50
34837;DHT22;21053;50.848;4.652;2023-05-21T07:38:10;18.30;98.90
34837;DHT22;21053;50.848;4.652;2023-05-21T07:40:36;18.30;98.60
34837;DHT22;21053;50.848;4.652;2023-05-21T07:43:02;18.30;98.80
34837;DHT22;21053;50.848;4.652;2023-05-21T07:45:30;18.30;98.30
34837;DHT22;21053;50.848;4.652;2023-05-21T07:47:56;18.40;98.50
34837;DHT22;21053;50.848;4.652;2023-05-21T07:50:24;18.50;98.70
34837;DHT22;21053;50.848;4.652;2023-05-21T07:52:53;18.50;97.80
34837;DHT22;21053;50.848;4.652;2023-05-21T07:55:19;18.60;98.10
34837;DHT22;21053;50.848;4.652;2023-05-21T07:57:47;18.70;98.50
34837;DHT22;21053;50.848;4.652;2023-05-21T08:00:22;18.80;98.70
34837;DHT22;21053;50.848;4.652;2023-05-21T08:02:51;18.90;98.10
34837;DHT22;21053;50.848;4.652;2023-05-21T08:05:18;18.90;97.90
34837;DHT22;21053;50.848;4.652;2023-05-21T08:07:44;19.00;98.00
34837;DHT22;21053;50.848;4.652;2023-05-21T08:10:16;19.20;97.10
34837;DHT22;21053;50.848;4.652;2023-05-21T08:12:48;19.10;97.50
34837;DHT22;21053;50.848;4.652;2023-05-21T08:15:15;19.00;97.30
34837;DHT22;21053;50.848;4.652;2023-05-21T08:17:41;18.90;97.60
34837;DHT22;21053;50.848;4.652;2023-05-21T08:20:11;18.90;97.70
34837;DHT22;21053;50.848;4.652;2023-05-21T08:22:40;19.00;97.90
34837;DHT22;21053;50.848;4.652;2023-05-21T08:25:07;19.20;97.20
34837;DHT22;21053;50.848;4.652;2023-05-21T08:27:35;19.20;97.40
34837;DHT22;21053;50.848;4.652;2023-05-21T08:30:01;19.30;96.90
34837;DHT22;21053;50.848;4.652;2023-05-21T08:32:28;19.50;97.40
34837;DHT22;21053;50.848;4.652;2023-05-21T08:34:55;19.50;96.70
34837;DHT22;21053;50.848;4.652;2023-05-21T08:37:22;19.50;96.90
34837;DHT22;21053;50.848;4.652;2023-05-21T08:39:48;19.40;97.10
34837;DHT22;21053;50.848;4.652;2023-05-21T08:44:51;19.50;97.10
34837;DHT22;21053;50.848;4.652;2023-05-21T08:47:22;19.60;97.20
34837;DHT22;21053;50.848;4.652;2023-05-21T08:49:50;19.90;97.10
34837;DHT22;21053;50.848;4.652;2023-05-21T08:52:20;20.10;96.70
34837;DHT22;21053;50.848;4.652;2023-05-21T08:54:48;20.40;96.20
34837;DHT22;21053;50.848;4.652;2023-05-21T08:57:17;20.50;95.70
34837;DHT22;21053;50.848;4.652;2023-05-21T08:59:45;20.60;96.10
34837;DHT22;21053;50.848;4.652;2023-05-21T09:02:12;20.70;95.30
34837;DHT22;21053;50.848;4.652;2023-05-21T09:04:43;20.60;95.40
34837;DHT22;21053;50.848;4.652;2023-05-21T09:07:13;20.50;95.60
34837;DHT22;21053;50.848;4.652;2023-05-21T09:09:48;20.50;95.80
34837;DHT22;21053;50.848;4.652;2023-05-21T09:14:48;20.80;94.80
34837;DHT22;21053;50.848;4.652;2023-05-21T09:17:16;21.00;95.50
34837;DHT22;21053;50.848;4.652;2023-05-21T09:20:06;21.10;95.00
34837;DHT22;21053;50.848;4.652;2023-05-21T09:22:49;21.20;95.00
34837;DHT22;21053;50.848;4.652;2023-05-21T09:25:19;21.60;95.30
34837;DHT22;21053;50.848;4.652;2023-05-21T09:27:45;22.00;94.60
34837;DHT22;21053;50.848;4.652;2023-05-21T09:30:13;22.10;93.20
34837;DHT22;21053;50.848;4.652;2023-05-21T09:32:42;22.10;93.70
34837;DHT22;21053;50.848;4.652;2023-05-21T09:35:13;22.20;93.00
34837;DHT22;21053;50.848;4.652;2023-05-21T09:37:43;22.00;93.50
34837;DHT22;21053;50.848;4.652;2023-05-21T09:40:12;22.00;93.40
34837;DHT22;21053;50.848;4.652;2023-05-21T09:42:45;22.40;94.00
34837;DHT22;21053;50.848;4.652;2023-05-21T09:45:11;22.50;92.70
34837;DHT22;21053;50.848;4.652;2023-05-21T09:47:44;22.60;92.70
34837;DHT22;21053;50.848;4.652;2023-05-21T09:50:23;22.60;92.20
34837;DHT22;21053;50.848;4.652;2023-05-21T09:52:50;22.80;93.00
34837;DHT22;21053;50.848;4.652;2023-05-21T09:55:21;22.90;92.80
34837;DHT22;21053;50.848;4.652;2023-05-21T09:57:48;22.80;92.30
34837;DHT22;21053;50.848;4.652;2023-05-21T10:00:21;22.80;91.70
34837;DHT22;21053;50.848;4.652;2023-05-21T10:02:54;23.10;91.80
34837;DHT22;21053;50.848;4.652;2023-05-21T10:05:27;23.30;92.50
34837;DHT22;21053;50.848;4.652;2023-05-21T10:07:59;23.30;91.90
34837;DHT22;21053;50.848;4.652;2023-05-21T10:10:27;23.40;93.40
34837;DHT22;21053;50.848;4.652;2023-05-21T10:13:05;23.70;91.60
34837;DHT22;21053;50.848;4.652;2023-05-21T10:15:41;24.00;91.10
34837;DHT22;21053;50.848;4.652;2023-05-21T10:18:09;23.90;90.60
34837;DHT22;21053;50.848;4.652;2023-05-21T10:20:39;23.90;90.80
34837;DHT22;21053;50.848;4.652;2023-05-21T10:23:07;23.60;90.50
34837;DHT22;21053;50.848;4.652;2023-05-21T10:25:34;23.60;90.40
34837;DHT22;21053;50.848;4.652;2023-05-21T10:28:02;23.60;91.00
34837;DHT22;21053;50.848;4.652;2023-05-21T10:30:30;23.50;91.00
34837;DHT22;21053;50.848;4.652;2023-05-21T10:32:57;23.70;91.80
34837;DHT22;21053;50.848;4.652;2023-05-21T10:35:25;23.90;90.80
34837;DHT22;21053;50.848;4.652;2023-05-21T10:37:53;24.20;90.40
34837;DHT22;21053;50.848;4.652;2023-05-21T10:40:22;24.30;90.10
34837;DHT22;21053;50.848;4.652;2023-05-21T10:55:22;24.80;88.20
34837;DHT22;21053;50.848;4.652;2023-05-21T11:00:26;24.80;89.90
34837;DHT22;21053;50.848;4.652;2023-05-21T11:02:53;24.70;89.00
34837;DHT22;21053;50.848;4.652;2023-05-21T11:05:38;24.80;87.80
34837;DHT22;21053;50.848;4.652;2023-05-21T11:08:20;24.60;89.40
34837;DHT22;21053;50.848;4.652;2023-05-21T11:10:54;24.50;88.40
34837;DHT22;21053;50.848;4.652;2023-05-21T11:13:20;24.20;89.30
34837;DHT22;21053;50.848;4.652;2023-05-21T11:16:13;23.90;90.40
34837;DHT22;21053;50.848;4.652;2023-05-21T11:21:10;24.10;90.10
34837;DHT22;21053;50.848;4.652;2023-05-21T11:23:59;24.10;89.60
34837;DHT22;21053;50.848;4.652;2023-05-21T11:26:58;24.10;90.00
34837;DHT22;21053;50.848;4.652;2023-05-21T11:29:18;23.80;89.40
34837;DHT22;21053;50.848;4.652;2023-05-21T11:32:07;23.70;90.50
34837;DHT22;21053;50.848;4.652;2023-05-21T11:34:46;23.70;90.60
34837;DHT22;21053;50.848;4.652;2023-05-21T11:39:46;23.70;91.50
34837;DHT22;21053;50.848;4.652;2023-05-21T11:44:57;24.20;91.00
34837;DHT22;21053;50.848;4.652;2023-05-21T11:47:25;24.40;90.80
34837;DHT22;21053;50.848;4.652;2023-05-21T11:49:53;24.40;89.40
34837;DHT22;21053;50.848;4.652;2023-05-21T11:52:19;24.60;90.10
34837;DHT22;21053;50.848;4.652;2023-05-21T11:54:50;24.70;90.20
34837;DHT22;21053;50.848;4.652;2023-05-21T11:57:18;24.90;89.50
34837;DHT22;21053;50.848;4.652;2023-05-21T11:59:46;25.20;88.80
34837;DHT22;21053;50.848;4.652;2023-05-21T12:02:20;25.40;87.80
34837;DHT22;21053;50.848;4.652;2023-05-21T12:04:47;25.70;85.70
34837;DHT22;21053;50.848;4.652;2023-05-21T12:07:14;25.60;85.90
34837;DHT22;21053;50.848;4.652;2023-05-21T12:09:46;25.50;86.20
34837;DHT22;21053;50.848;4.652;2023-05-21T12:12:15;25.20;87.60
34837;DHT22;21053;50.848;4.652;2023-05-21T12:14:49;24.90;87.80
34837;DHT22;21053;50.848;4.652;2023-05-21T12:17:16;24.50;87.50
34837;DHT22;21053;50.848;4.652;2023-05-21T12:19:42;24.30;90.90
34837;DHT22;21053;50.848;4.652;2023-05-21T12:22:09;24.50;90.60
34837;DHT22;21053;50.848;4.652;2023-05-21T12:24:37;24.90;89.40
34837;DHT22;21053;50.848;4.652;2023-05-21T12:27:06;25.10;88.00
34837;DHT22;21053;50.848;4.652;2023-05-21T12:29:40;25.50;88.70
34837;DHT22;21053;50.848;4.652;2023-05-21T12:32:09;25.50;89.60
34837;DHT22;21053;50.848;4.652;2023-05-21T12:34:52;25.40;88.40
34837;DHT22;21053;50.848;4.652;2023-05-21T12:37:29;25.50;86.70
34837;DHT22;21053;50.848;4.652;2023-05-21T12:40:01;25.70;87.30
34837;DHT22;21053;50.848;4.652;2023-05-21T12:42:33;25.60;86.10
34837;DHT22;21053;50.848;4.652;2023-05-21T12:45:06;25.70;86.60
34837;DHT22;21053;50.848;4.652;2023-05-21T12:47:36;25.80;88.00
34837;DHT22;21053;50.848;4.652;2023-05-21T12:50:07;25.90;86.80
34837;DHT22;21053;50.848;4.652;2023-05-21T12:52:39;25.90;85.50
34837;DHT22;21053;50.848;4.652;2023-05-21T12:55:25;26.00;84.60
34837;DHT22;21053;50.848;4.652;2023-05-21T12:58:02;26.20;86.40
34837;DHT22;21053;50.848;4.652;2023-05-21T13:00:30;26.30;87.10
34837;DHT22;21053;50.848;4.652;2023-05-21T13:02:56;26.30;84.10
34837;DHT22;21053;50.848;4.652;2023-05-21T13:05:25;26.10;84.50
34837;DHT22;21053;50.848;4.652;2023-05-21T13:07:54;26.10;85.40
34837;DHT22;21053;50.848;4.652;2023-05-21T13:10:20;26.10;85.70
34837;DHT22;21053;50.848;4.652;2023-05-21T13:12:48;25.80;84.80
34837;DHT22;21053;50.848;4.652;2023-05-21T13:15:17;25.60;85.60
34837;DHT22;21053;50.848;4.652;2023-05-21T13:17:43;25.60;87.40
34837;DHT22;21053;50.848;4.652;2023-05-21T13:20:09;25.70;86.50
34837;DHT22;21053;50.848;4.652;2023-05-21T13:22:40;26.00;85.80
34837;DHT22;21053;50.848;4.652;2023-05-21T13:25:15;26.20;84.50
34837;DHT22;21053;50.848;4.652;2023-05-21T13:28:11;26.00;84.20
34837;DHT22;21053;50.848;4.652;2023-05-21T13:30:40;26.00;85.40
34837;DHT22;21053;50.848;4.652;2023-05-21T13:33:06;26.10;85.10
34837;DHT22;21053;50.848;4.652;2023-05-21T13:35:32;26.00;84.70
34837;DHT22;21053;50.848;4.652;2023-05-21T13:37:58;25.90;85.90
34837;DHT22;21053;50.848;4.652;2023-05-21T13:40:26;25.80;85.60
34837;DHT22;21053;50.848;4.652;2023-05-21T13:42:52;25.90;86.80
34837;DHT22;21053;50.848;4.652;2023-05-21T13:45:21;25.80;85.10
34837;DHT22;21053;50.848;4.652;2023-05-21T13:47:53;25.80;86.20
34837;DHT22;21053;50.848;4.652;2023-05-21T13:50:19;25.80;86.50
34837;DHT22;21053;50.848;4.652;2023-05-21T13:52:45;26.00;86.50
34837;DHT22;21053;50.848;4.652;2023-05-21T13:55:14;26.00;84.80
34837;DHT22;21053;50.848;4.652;2023-05-21T13:57:40;26.10;85.20
34837;DHT22;21053;50.848;4.652;2023-05-21T14:00:06;26.00;84.10
34837;DHT22;21053;50.848;4.652;2023-05-21T14:02:34;26.10;84.70
34837;DHT22;21053;50.848;4.652;2023-05-21T14:05:01;26.30;85.00
34837;DHT22;21053;50.848;4.652;2023-05-21T14:07:26;26.40;86.00
34837;DHT22;21053;50.848;4.652;2023-05-21T14:09:53;26.30;85.10
34837;DHT22;21053;50.848;4.652;2023-05-21T14:12:20;26.20;85.00
34837;DHT22;21053;50.848;4.652;2023-05-21T14:14:46;26.00;85.30
34837;DHT22;21053;50.848;4.652;2023-05-21T14:17:16;26.00;86.50
34837;DHT22;21053;50.848;4.652;2023-05-21T14:19:41;26.20;87.10
34837;DHT22;21053;50.848;4.652;2023-05-21T14:22:08;26.30;84.10
34837;DHT22;21053;50.848;4.652;2023-05-21T14:24:35;26.50;84.70
34837;DHT22;21053;50.848;4.652;2023-05-21T14:27:02;26.70;84.10
34837;DHT22;21053;50.848;4.652;2023-05-21T14:29:27;26.80;84.00
34837;DHT22;21053;50.848;4.652;2023-05-21T14:31:54;26.80;83.30
34837;DHT22;21053;50.848;4.652;2023-05-21T14:34:20;26.50;83.70
34837;DHT22;21053;50.848;4.652;2023-05-21T14:36:47;26.40;84.40
34837;DHT22;21053;50.848;4.652;2023-05-21T14:39:12;26.40;84.70
34837;DHT22;21053;50.848;4.652;2023-05-21T14:41:40;26.50;83.00
34837;DHT22;21053;50.848;4.652;2023-05-21T14:44:06;26.50;82.90
34837;DHT22;21053;50.848;4.652;2023-05-21T14:46:36;26.40;84.70
34837;DHT22;21053;50.848;4.652;2023-05-21T14:49:02;26.20;84.00
34837;DHT22;21053;50.848;4.652;2023-05-21T14:51:29;26.00;84.50
34837;DHT22;21053;50.848;4.652;2023-05-21T14:53:56;25.80;85.40
34837;DHT22;21053;50.848;4.652;2023-05-21T14:56:22;25.70;85.80
34837;DHT22;21053;50.848;4.652;2023-05-21T14:58:51;25.60;87.00
34837;DHT22;21053;50.848;4.652;2023-05-21T15:01:18;25.70;87.80
34837;DHT22;21053;50.848;4.652;2023-05-21T15:03:43;25.60;86.90
34837;DHT22;21053;50.848;4.652;2023-05-21T15:06:09;25.40;87.50
34837;DHT22;21053;50.848;4.652;2023-05-21T15:08:38;25.30;87.20
34837;DHT22;21053;50.848;4.652;2023-05-21T15:11:05;25.10;87.30
34837;DHT22;21053;50.848;4.652;2023-05-21T15:13:33;25.30;87.40
34837;DHT22;21053;50.848;4.652;2023-05-21T15:15:58;25.20;87.70
34837;DHT22;21053;50.848;4.652;2023-05-21T15:18:24;25.10;87.60
34837;DHT22;21053;50.848;4.652;2023-05-21T15:20:50;25.10;89.10
34837;DHT22;21053;50.848;4.652;2023-05-21T15:23:19;25.50;87.60
34837;DHT22;21053;50.848;4.652;2023-05-21T15:25:48;25.50;86.00
34837;DHT22;21053;50.848;4.652;2023-05-21T15:28:15;25.40;87.20
34837;DHT22;21053;50.848;4.652;2023-05-21T15:30:43;25.40;88.50
34837;DHT22;21053;50.848;4.652;2023-05-21T15:33:10;25.50;87.50
34837;DHT22;21053;50.848;4.652;2023-05-21T15:35:38;25.60;87.20
34837;DHT22;21053;50.848;4.652;2023-05-21T15:38:04;25.40;87.00
34837;DHT22;21053;50.848;4.652;2023-05-21T15:40:31;25.30;87.10
34837;DHT22;21053;50.848;4.652;2023-05-21T15:42:58;25.10;87.90
34837;DHT22;21053;50.848;4.652;2023-05-21T15:45:27;25.20;87.50
34837;DHT22;21053;50.848;4.652;2023-05-21T15:47:53;25.30;87.30
34837;DHT22;21053;50.848;4.652;2023-05-21T15:50:20;25.30;87.60
34837;DHT22;21053;50.848;4.652;2023-05-21T15:52:47;25.40;88.40
34837;DHT22;21053;50.848;4.652;2023-05-21T15:55:13;25.30;88.20
34837;DHT22;21053;50.848;4.652;2023-05-21T15:57:39;25.30;87.30
34837;DHT22;21053;50.848;4.652;2023-05-21T16:00:06;25.40;88.40
34837;DHT22;21053;50.848;4.652;2023-05-21T16:02:33;25.20;88.10
34837;DHT22;21053;50.848;4.652;2023-05-21T16:05:00;25.20;88.00
34837;DHT22;21053;50.848;4.652;2023-05-21T16:07:26;25.20;88.40
34837;DHT22;21053;50.848;4.652;2023-05-21T16:09:52;25.00;88.40
34837;DHT22;21053;50.848;4.652;2023-05-21T16:12:18;25.00;89.00